createdAt,value
2022-12-18T00:00:52.187Z,21.21
2022-12-18T00:03:22.496Z,21.19
2022-12-18T00:05:54.449Z,21.21
2022-12-18T00:08:24.762Z,21.19
2022-12-18T00:10:54.815Z,21.18
2022-12-18T00:13:30.411Z,21.15
2022-12-18T00:16:06.657Z,21.14
2022-12-18T00:18:37.681Z,21.15
2022-12-18T00:21:10.199Z,21.15
2022-12-18T00:23:42.390Z,21.12
2022-12-18T00:26:15.548Z,21.14
2022-12-18T00:28:46.790Z,21.14
2022-12-18T00:31:20.264Z,21.11
2022-12-18T00:33:53.897Z,21.12
2022-12-18T00:36:30.840Z,21.14
2022-12-18T00:39:02.415Z,21.16
2022-12-18T00:41:51.053Z,21.14
2022-12-18T00:44:22.059Z,21.12
2022-12-18T00:46:52.409Z,21.11
2022-12-18T00:49:22.829Z,21.11
2022-12-18T00:51:52.982Z,21.08
2022-12-18T00:54:23.456Z,21.09
2022-12-18T00:56:53.759Z,21.06
2022-12-18T00:59:24.047Z,21.08
2022-12-18T01:01:54.359Z,21.11
2022-12-18T01:04:24.423Z,21.09
2022-12-18T01:06:54.638Z,21.06
2022-12-18T01:09:25.017Z,21.04
2022-12-18T01:11:55.321Z,21.02
2022-12-18T01:14:26.086Z,21.02
2022-12-18T01:16:56.457Z,21.08
2022-12-18T01:19:26.552Z,21.08
2022-12-18T01:21:57.970Z,21.09
2022-12-18T01:24:47.276Z,21.11
2022-12-18T01:27:16.948Z,21.05
2022-12-18T01:29:47.143Z,21.05
2022-12-18T01:32:17.333Z,21.04
2022-12-18T01:34:47.765Z,20.99
2022-12-18T01:37:18.148Z,20.95
2022-12-18T01:39:48.417Z,20.98
2022-12-18T01:42:19.279Z,20.97
2022-12-18T01:44:59.348Z,20.91
2022-12-18T01:47:38.622Z,20.91
2022-12-18T01:50:22.065Z,20.91
2022-12-18T01:52:56.465Z,20.95
2022-12-18T01:55:29.577Z,20.94
2022-12-18T01:58:02.031Z,20.91
2022-12-18T02:00:33.010Z,20.91
2022-12-18T02:03:05.859Z,20.90
2022-12-18T02:06:02.598Z,20.95
2022-12-18T02:09:12.927Z,20.99
2022-12-18T02:12:01.500Z,20.92
2022-12-18T02:14:43.731Z,20.92
2022-12-18T02:17:25.054Z,20.94
2022-12-18T02:20:11.234Z,20.91
2022-12-18T02:23:02.787Z,20.91
2022-12-18T02:26:10.211Z,20.92
2022-12-18T02:29:06.090Z,20.92
2022-12-18T02:31:49.655Z,20.97
2022-12-18T02:34:22.744Z,20.94
2022-12-18T02:36:55.937Z,20.91
2022-12-18T02:39:30.132Z,20.91
2022-12-18T02:42:09.904Z,20.85
2022-12-18T02:44:48.801Z,20.83
2022-12-18T02:47:26.578Z,20.83
2022-12-18T02:50:15.394Z,20.81
2022-12-18T02:52:55.023Z,20.78
2022-12-18T02:55:39.322Z,20.77
2022-12-18T02:58:22.537Z,20.77
2022-12-18T03:01:02.388Z,20.78
2022-12-18T03:03:42.732Z,20.80
2022-12-18T03:06:41.638Z,20.77
2022-12-18T03:09:24.728Z,20.77
2022-12-18T03:12:23.123Z,20.75
2022-12-18T03:15:01.986Z,20.85
2022-12-18T03:17:35.494Z,20.85
2022-12-18T03:20:14.865Z,20.77
2022-12-18T03:22:49.722Z,20.80
2022-12-18T03:25:21.550Z,20.75
2022-12-18T03:28:01.528Z,20.78
2022-12-18T03:30:33.230Z,20.74
2022-12-18T03:33:14.570Z,20.71
2022-12-18T03:35:49.285Z,20.67
2022-12-18T03:38:20.707Z,20.65
2022-12-18T03:41:19.310Z,20.67
2022-12-18T03:44:16.911Z,20.73
2022-12-18T03:47:16.679Z,20.71
2022-12-18T03:50:12.662Z,20.73
2022-12-18T03:52:56.841Z,20.73
2022-12-18T03:55:30.299Z,20.74
2022-12-18T03:58:06.097Z,20.70
2022-12-18T04:00:50.800Z,20.73
2022-12-18T04:03:26.230Z,20.68
2022-12-18T04:05:58.202Z,20.68
2022-12-18T04:08:30.221Z,20.61
2022-12-18T04:11:07.757Z,20.60
2022-12-18T04:13:40.936Z,20.63
2022-12-18T04:16:18.183Z,20.63
2022-12-18T04:18:49.587Z,20.57
2022-12-18T04:21:19.337Z,20.54
2022-12-18T04:23:51.723Z,20.56
2022-12-18T04:26:24.565Z,20.53
2022-12-18T04:29:04.294Z,20.48
2022-12-18T04:31:35.100Z,20.50
2022-12-18T04:34:06.288Z,20.51
2022-12-18T04:36:42.997Z,20.56
2022-12-18T04:39:13.439Z,20.54
2022-12-18T04:41:44.547Z,20.50
2022-12-18T04:44:16.570Z,20.56
2022-12-18T04:46:47.020Z,20.50
2022-12-18T04:49:17.512Z,20.57
2022-12-18T04:51:47.710Z,20.53
2022-12-18T04:54:18.802Z,20.54
2022-12-18T04:56:49.030Z,20.56
2022-12-18T04:59:18.737Z,20.60
2022-12-18T05:01:48.956Z,20.58
2022-12-18T05:04:19.548Z,20.57
2022-12-18T05:06:50.201Z,20.57
2022-12-18T05:09:19.836Z,20.58
2022-12-18T05:11:49.765Z,20.57
2022-12-18T05:14:20.049Z,20.60
2022-12-18T05:16:50.242Z,20.61
2022-12-18T05:19:20.279Z,20.58
2022-12-18T05:21:50.460Z,20.60
2022-12-18T05:24:20.829Z,20.58
2022-12-18T05:26:51.089Z,20.60
2022-12-18T05:29:21.452Z,20.61
2022-12-18T05:31:51.672Z,20.61
2022-12-18T05:34:21.358Z,20.60
2022-12-18T05:36:51.216Z,20.63
2022-12-18T05:39:20.955Z,20.61
2022-12-18T05:41:51.149Z,20.56
2022-12-18T05:44:21.349Z,20.56
2022-12-18T05:46:51.098Z,20.53
2022-12-18T05:49:21.149Z,20.54
2022-12-18T05:51:51.937Z,20.53
2022-12-18T05:54:22.096Z,20.51
2022-12-18T05:56:51.825Z,20.51
2022-12-18T05:59:22.170Z,20.50
2022-12-18T06:01:53.013Z,20.48
2022-12-18T06:04:23.353Z,20.47
2022-12-18T06:06:53.104Z,20.48
2022-12-18T06:09:23.290Z,20.46
2022-12-18T06:11:55.079Z,20.47
2022-12-18T06:14:25.302Z,20.48
2022-12-18T06:16:54.994Z,20.56
2022-12-18T06:19:25.176Z,20.60
2022-12-18T06:21:55.419Z,20.60
2022-12-18T06:24:25.511Z,20.60
2022-12-18T06:26:55.197Z,20.63
2022-12-18T06:29:25.076Z,20.65
2022-12-18T06:31:54.833Z,20.63
2022-12-18T06:34:25.079Z,20.68
2022-12-18T06:36:55.341Z,20.68
2022-12-18T06:39:25.035Z,20.70
2022-12-18T06:41:55.188Z,20.64
2022-12-18T06:44:25.859Z,20.64
2022-12-18T06:46:56.074Z,20.65
2022-12-18T06:49:30.455Z,20.70
2022-12-18T06:52:00.997Z,20.70
2022-12-18T06:54:31.243Z,20.75
2022-12-18T06:57:00.879Z,20.80
2022-12-18T06:59:31.561Z,20.80
2022-12-18T07:02:01.871Z,20.81
2022-12-18T07:04:33.830Z,20.84
2022-12-18T07:07:04.041Z,20.74
2022-12-18T07:09:33.755Z,20.75
2022-12-18T07:12:03.783Z,20.78
2022-12-18T07:14:33.774Z,20.81
2022-12-18T07:17:03.705Z,20.77
2022-12-18T07:19:34.165Z,20.78
2022-12-18T07:22:03.987Z,20.75
2022-12-18T07:24:36.908Z,20.75
2022-12-18T07:27:07.218Z,20.77
2022-12-18T07:29:38.348Z,20.71
2022-12-18T07:32:09.821Z,20.61
2022-12-18T07:34:40.614Z,20.58
2022-12-18T07:37:10.322Z,20.54
2022-12-18T07:39:40.316Z,20.47
2022-12-18T07:42:28.760Z,20.44
2022-12-18T07:44:59.326Z,20.43
2022-12-18T07:47:30.220Z,20.34
2022-12-18T07:50:01.131Z,20.36
2022-12-18T07:52:30.863Z,20.33
2022-12-18T07:55:01.026Z,20.36
2022-12-18T08:00:22.035Z,20.40
2022-12-18T08:02:52.297Z,20.39
2022-12-18T08:05:23.042Z,20.39
2022-12-18T08:07:53.677Z,20.46
2022-12-18T08:10:24.210Z,20.43
2022-12-18T08:12:54.765Z,20.39
2022-12-18T08:15:26.038Z,20.41
2022-12-18T08:17:59.591Z,20.40
2022-12-18T08:20:29.780Z,20.43
2022-12-18T08:23:00.328Z,20.40
2022-12-18T08:25:30.557Z,20.43
2022-12-18T08:28:00.365Z,20.43
2022-12-18T08:30:30.419Z,20.51
2022-12-18T08:33:00.855Z,20.47
2022-12-18T08:35:36.385Z,20.50
2022-12-18T08:38:08.138Z,20.50
2022-12-18T08:40:37.786Z,20.54
2022-12-18T08:43:26.183Z,20.61
2022-12-18T08:45:56.886Z,20.63
2022-12-18T08:48:27.124Z,20.58
2022-12-18T08:51:00.225Z,20.60
2022-12-18T08:53:35.436Z,20.65
2022-12-18T08:56:07.095Z,20.73
2022-12-18T08:58:37.674Z,20.75
2022-12-18T09:01:11.312Z,20.78
2022-12-18T09:03:42.619Z,20.81
2022-12-18T09:06:17.943Z,20.73
2022-12-18T09:08:48.771Z,20.74
2022-12-18T09:11:29.774Z,20.75
2022-12-18T09:14:02.136Z,20.71
2022-12-18T09:16:33.698Z,20.75
2022-12-18T09:19:06.196Z,20.74
2022-12-18T09:21:46.143Z,20.71
2022-12-18T09:24:19.353Z,20.77
2022-12-18T09:26:52.488Z,20.75
2022-12-18T09:29:25.205Z,20.77
2022-12-18T09:31:55.626Z,20.74
2022-12-18T09:34:25.999Z,20.67
2022-12-18T09:36:56.167Z,20.75
2022-12-18T09:39:26.272Z,20.73
2022-12-18T09:42:01.014Z,20.64
2022-12-18T09:44:48.777Z,20.61
2022-12-18T09:47:38.009Z,20.60
2022-12-18T09:50:45.189Z,20.64
2022-12-18T09:53:21.591Z,20.67
2022-12-18T09:55:54.439Z,20.80
2022-12-18T09:58:36.011Z,20.78
2022-12-18T10:01:21.078Z,20.83
2022-12-18T10:03:52.219Z,20.80
2022-12-18T10:06:55.953Z,20.91
2022-12-18T10:09:51.289Z,20.95
2022-12-18T10:13:04.704Z,20.95
2022-12-18T10:15:34.851Z,20.98
2022-12-18T10:18:58.784Z,21.04
2022-12-18T10:21:41.368Z,21.05
2022-12-18T10:24:26.644Z,21.19
2022-12-18T10:27:02.610Z,21.24
2022-12-18T10:29:32.850Z,21.25
2022-12-18T10:32:02.532Z,21.41
2022-12-18T10:34:32.343Z,21.42
2022-12-18T10:37:08.857Z,21.53
2022-12-18T10:39:39.123Z,21.62
2022-12-18T10:42:15.099Z,21.79
2022-12-18T10:44:45.257Z,21.93
2022-12-18T10:47:20.397Z,22.07
2022-12-18T10:49:57.169Z,22.18
2022-12-18T10:52:29.880Z,22.17
2022-12-18T10:55:05.007Z,22.30
2022-12-18T10:57:41.057Z,22.37
2022-12-18T11:00:34.370Z,22.37
2022-12-18T11:03:04.842Z,22.47
2022-12-18T11:05:39.134Z,22.54
2022-12-18T11:08:24.940Z,22.58
2022-12-18T11:10:55.180Z,22.58
2022-12-18T11:13:26.339Z,22.68
2022-12-18T11:15:57.163Z,22.54
2022-12-18T11:18:36.140Z,22.44
2022-12-18T11:21:12.460Z,22.43
2022-12-18T11:23:56.164Z,22.25
2022-12-18T11:26:38.156Z,22.33
2022-12-18T11:29:19.128Z,22.33
2022-12-18T11:31:50.285Z,22.35
2022-12-18T11:34:30.831Z,22.33
2022-12-18T11:37:03.382Z,22.33
2022-12-18T11:39:41.391Z,22.28
2022-12-18T11:42:33.543Z,22.30
2022-12-18T11:45:13.591Z,22.28
2022-12-18T11:48:00.482Z,22.27
2022-12-18T11:50:39.643Z,22.33
2022-12-18T11:53:14.670Z,22.44
2022-12-18T11:56:01.518Z,22.58
2022-12-18T11:58:46.352Z,22.72
2022-12-18T12:01:44.297Z,22.79
2022-12-18T12:04:36.231Z,22.95
2022-12-18T12:07:36.746Z,22.99
2022-12-18T12:10:46.644Z,23.08
2022-12-18T12:13:27.187Z,23.12
2022-12-18T12:16:09.314Z,23.16
2022-12-18T12:19:02.749Z,23.27
2022-12-18T12:21:43.695Z,23.53
2022-12-18T12:24:41.080Z,23.54
2022-12-18T12:27:30.268Z,23.82
2022-12-18T12:30:23.995Z,23.96
2022-12-18T12:33:09.090Z,23.87
2022-12-18T12:36:06.065Z,23.85
2022-12-18T12:38:51.923Z,23.78
2022-12-18T12:41:45.169Z,23.66
2022-12-18T12:44:42.080Z,23.50
2022-12-18T12:47:30.992Z,23.36
2022-12-18T12:50:05.008Z,23.33
2022-12-18T12:52:43.520Z,23.40
2022-12-18T12:55:22.531Z,23.46
2022-12-18T12:58:22.046Z,23.64
2022-12-18T13:01:19.859Z,23.93
2022-12-18T13:04:18.803Z,24.07
2022-12-18T13:07:01.675Z,24.48
2022-12-18T13:09:37.159Z,24.77
2022-12-18T13:12:35.025Z,25.19
2022-12-18T13:15:31.227Z,25.55
2022-12-18T13:18:26.280Z,25.64
2022-12-18T13:21:03.806Z,25.65
2022-12-18T13:23:39.541Z,25.62
2022-12-18T13:26:12.514Z,25.40
2022-12-18T13:28:48.610Z,25.42
2022-12-18T13:31:44.186Z,25.26
2022-12-18T13:34:34.003Z,25.04
2022-12-18T13:37:35.007Z,24.84
2022-12-18T13:40:25.234Z,24.70
2022-12-18T13:43:13.711Z,24.75
2022-12-18T13:45:47.742Z,24.60
2022-12-18T13:48:24.413Z,24.45
2022-12-18T13:51:20.049Z,24.43
2022-12-18T13:53:59.825Z,24.43
2022-12-18T13:56:36.411Z,24.45
2022-12-18T13:59:24.531Z,24.52
2022-12-18T14:01:56.896Z,24.62
2022-12-18T14:04:31.193Z,24.80
2022-12-18T14:07:15.068Z,24.99
2022-12-18T14:10:01.889Z,25.02
2022-12-18T14:12:56.644Z,25.20
2022-12-18T14:15:29.657Z,25.41
2022-12-18T14:18:04.448Z,25.51
2022-12-18T14:20:36.800Z,25.50
2022-12-18T14:23:07.263Z,25.50
2022-12-18T14:25:37.515Z,25.57
2022-12-18T14:28:10.555Z,25.61
2022-12-18T14:30:48.705Z,25.75
2022-12-18T14:33:24.982Z,25.82
2022-12-18T14:36:05.487Z,25.99
2022-12-18T14:38:37.957Z,25.98
2022-12-18T14:41:19.599Z,25.93
2022-12-18T14:43:52.824Z,25.77
2022-12-18T14:46:47.909Z,25.62
2022-12-18T14:49:27.794Z,25.62
2022-12-18T14:52:03.057Z,25.54
2022-12-18T14:54:34.916Z,25.61
2022-12-18T14:57:25.749Z,25.85
2022-12-18T14:59:56.148Z,25.88
2022-12-18T15:02:29.279Z,26.05
2022-12-18T15:05:23.656Z,26.19
2022-12-18T15:07:56.050Z,26.23
2022-12-18T15:10:42.891Z,26.32
2022-12-18T15:13:24.051Z,26.33
2022-12-18T15:15:57.168Z,26.37
2022-12-18T15:18:34.710Z,26.23
2022-12-18T15:21:13.131Z,26.16
2022-12-18T15:23:54.727Z,26.28
2022-12-18T15:26:25.781Z,26.36
2022-12-18T15:28:58.244Z,26.42
2022-12-18T15:31:39.042Z,26.29
2022-12-18T15:34:14.545Z,26.16
2022-12-18T15:36:44.863Z,26.08
2022-12-18T15:39:15.832Z,26.15
2022-12-18T15:42:06.068Z,26.16
2022-12-18T15:44:36.658Z,26.08
2022-12-18T15:47:13.264Z,26.15
2022-12-18T15:49:43.497Z,26.05
2022-12-18T15:52:16.535Z,25.99
2022-12-18T15:55:04.864Z,26.01
2022-12-18T15:57:35.107Z,26.05
2022-12-18T16:00:05.725Z,26.12
2022-12-18T16:02:36.111Z,25.93
2022-12-18T16:05:11.381Z,25.81
2022-12-18T16:07:41.580Z,25.84
2022-12-18T16:10:12.719Z,25.77
2022-12-18T16:12:44.437Z,25.75
2022-12-18T16:15:24.102Z,25.82
2022-12-18T16:17:55.071Z,25.88
2022-12-18T16:20:25.326Z,25.91
2022-12-18T16:22:55.767Z,25.85
2022-12-18T16:25:28.454Z,25.74
2022-12-18T16:28:00.202Z,25.68
2022-12-18T16:30:38.574Z,25.68
2022-12-18T16:33:08.972Z,25.62
2022-12-18T16:35:39.285Z,25.57
2022-12-18T16:38:09.524Z,25.57
2022-12-18T16:41:00.759Z,25.37
2022-12-18T16:43:33.702Z,25.27
2022-12-18T16:46:03.921Z,25.07
2022-12-18T16:48:36.982Z,24.93
2022-12-18T16:51:07.981Z,24.94
2022-12-18T16:53:38.808Z,24.91
2022-12-18T16:56:09.585Z,24.99
2022-12-18T16:58:39.856Z,24.97
2022-12-18T17:01:13.682Z,24.91
2022-12-18T17:03:44.316Z,24.87
2022-12-18T17:06:16.253Z,24.90
2022-12-18T17:08:47.206Z,24.83
2022-12-18T17:11:17.630Z,24.86
2022-12-18T17:13:47.863Z,24.70
2022-12-18T17:16:18.855Z,24.68
2022-12-18T17:18:49.576Z,24.56
2022-12-18T17:21:19.914Z,24.58
2022-12-18T17:23:50.356Z,24.59
2022-12-18T17:26:20.631Z,24.62
2022-12-18T17:28:51.188Z,24.49
2022-12-18T17:31:26.668Z,24.49
2022-12-18T17:33:57.320Z,24.33
2022-12-18T17:36:33.192Z,24.24
2022-12-18T17:39:04.114Z,24.24
2022-12-18T17:41:35.169Z,24.26
2022-12-18T17:44:07.645Z,24.19
2022-12-18T17:46:37.860Z,24.21
2022-12-18T17:49:08.347Z,24.21
2022-12-18T17:51:38.643Z,24.22
2022-12-18T17:54:09.071Z,24.25
2022-12-18T17:56:39.806Z,24.26
2022-12-18T17:59:10.272Z,24.14
2022-12-18T18:01:44.460Z,24.08
2022-12-18T18:04:15.818Z,24.08
2022-12-18T18:06:46.181Z,24.18
2022-12-18T18:09:17.188Z,24.28
2022-12-18T18:12:06.156Z,24.39
2022-12-18T18:14:36.674Z,24.45
2022-12-18T18:17:06.977Z,24.48
2022-12-18T18:19:37.485Z,24.49
2022-12-18T18:22:09.601Z,24.45
2022-12-18T18:24:40.126Z,24.51
2022-12-18T18:27:10.289Z,24.65
2022-12-18T18:29:41.732Z,24.82
2022-12-18T18:32:12.186Z,25.06
2022-12-18T18:34:42.616Z,25.16
2022-12-18T18:37:13.462Z,25.30
2022-12-18T18:39:44.912Z,25.47
2022-12-18T18:42:15.068Z,25.47
2022-12-18T18:44:48.964Z,25.51
2022-12-18T18:47:19.564Z,25.69
2022-12-18T18:49:49.774Z,25.72
2022-12-18T18:52:19.984Z,25.74
2022-12-18T18:55:11.787Z,25.54
2022-12-18T18:57:40.914Z,25.50
2022-12-18T19:00:12.664Z,25.31
2022-12-18T19:02:43.249Z,25.11
2022-12-18T19:05:13.520Z,25.20
2022-12-18T19:07:43.689Z,25.07
2022-12-18T19:10:13.956Z,25.04
2022-12-18T19:13:02.510Z,25.06
2022-12-18T19:15:32.316Z,25.14
2022-12-18T19:18:02.790Z,25.04
2022-12-18T19:20:33.122Z,24.96
2022-12-18T19:23:03.350Z,25.04
2022-12-18T19:25:40.593Z,25.09
2022-12-18T19:28:18.956Z,25.13
2022-12-18T19:30:59.243Z,25.44
2022-12-18T19:33:44.072Z,25.37
2022-12-18T19:36:28.659Z,25.67
2022-12-18T19:39:03.336Z,25.67
2022-12-18T19:41:33.994Z,25.71
2022-12-18T19:44:07.459Z,25.67
2022-12-18T19:46:41.635Z,25.47
2022-12-18T19:49:13.687Z,25.26
2022-12-18T19:51:50.118Z,25.19
2022-12-18T19:54:20.597Z,25.14
2022-12-18T19:56:51.308Z,24.94
2022-12-18T19:59:21.609Z,24.77
2022-12-18T20:01:51.980Z,24.72
2022-12-18T20:04:22.332Z,24.83
2022-12-18T20:06:53.237Z,25.27
2022-12-18T20:09:24.206Z,25.47
2022-12-18T20:11:55.748Z,25.31
2022-12-18T20:14:26.123Z,25.34
2022-12-18T20:16:56.301Z,25.06
2022-12-18T20:19:26.916Z,24.80
2022-12-18T20:22:02.439Z,24.60
2022-12-18T20:24:33.400Z,24.58
2022-12-18T20:27:03.922Z,24.47
2022-12-18T20:29:34.514Z,24.53
2022-12-18T20:32:05.261Z,24.59
2022-12-18T20:34:35.584Z,24.58
2022-12-18T20:37:06.639Z,24.48
2022-12-18T20:39:37.692Z,24.47
2022-12-18T20:42:08.515Z,24.39
2022-12-18T20:44:38.866Z,24.21
2022-12-18T20:47:09.182Z,24.01
2022-12-18T20:49:39.613Z,23.96
2022-12-18T20:52:15.432Z,23.84
2022-12-18T20:54:45.630Z,23.74
2022-12-18T20:57:16.096Z,23.67
2022-12-18T20:59:48.286Z,23.61
2022-12-18T21:02:19.301Z,23.64
2022-12-18T21:04:49.885Z,23.63
2022-12-18T21:07:20.747Z,23.53
2022-12-18T21:09:50.939Z,23.54
2022-12-18T21:12:58.678Z,23.53
2022-12-18T21:15:30.565Z,23.47
2022-12-18T21:18:00.755Z,23.39
2022-12-18T21:20:30.753Z,23.27
2022-12-18T21:23:10.416Z,23.31
2022-12-18T21:25:48.348Z,23.20
2022-12-18T21:28:25.796Z,23.15
2022-12-18T21:30:56.227Z,22.98
2022-12-18T21:33:26.786Z,22.86
2022-12-18T21:35:57.076Z,22.82
2022-12-18T21:38:29.596Z,22.81
2022-12-18T21:41:00.279Z,22.72
2022-12-18T21:43:48.717Z,22.67
2022-12-18T21:46:21.770Z,22.69
2022-12-18T21:48:52.027Z,22.57
2022-12-18T21:51:22.316Z,22.58
2022-12-18T21:53:52.558Z,22.55
2022-12-18T21:56:22.252Z,22.51
2022-12-18T21:58:55.781Z,22.43
2022-12-18T22:01:34.528Z,22.41
2022-12-18T22:04:08.127Z,22.41
2022-12-18T22:06:38.569Z,22.38
2022-12-18T22:09:09.123Z,22.34
2022-12-18T22:11:58.877Z,22.33
2022-12-18T22:14:29.337Z,22.25
2022-12-18T22:16:59.968Z,22.18
2022-12-18T22:19:31.387Z,22.20
2022-12-18T22:22:01.700Z,22.17
2022-12-18T22:24:31.707Z,22.11
2022-12-18T22:27:02.531Z,22.06
2022-12-18T22:29:50.882Z,22.04
2022-12-18T22:32:29.426Z,21.98
2022-12-18T22:35:12.946Z,21.94
2022-12-18T22:37:45.808Z,21.90
2022-12-18T22:40:24.089Z,21.83
2022-12-18T22:42:57.222Z,21.86
2022-12-18T22:45:29.093Z,21.86
2022-12-18T22:47:59.567Z,21.82
2022-12-18T22:50:29.264Z,21.76
2022-12-18T22:52:59.186Z,21.75
2022-12-18T22:55:29.493Z,21.69
2022-12-18T22:57:59.668Z,21.60
2022-12-18T23:00:29.450Z,21.65
2022-12-18T23:03:00.867Z,21.57
2022-12-18T23:05:32.885Z,21.55
2022-12-18T23:08:03.180Z,21.52
2022-12-18T23:10:33.638Z,21.49
2022-12-18T23:13:03.855Z,21.47
2022-12-18T23:15:33.648Z,21.42
2022-12-18T23:18:03.467Z,21.41
2022-12-18T23:20:33.722Z,21.32
2022-12-18T23:23:04.352Z,21.31
2022-12-18T23:25:34.615Z,21.26
2022-12-18T23:28:04.394Z,21.21
2022-12-18T23:30:34.689Z,21.09
2022-12-18T23:33:04.957Z,21.06
2022-12-18T23:35:35.562Z,21.05
2022-12-18T23:38:05.804Z,21.04
2022-12-18T23:40:35.898Z,20.99
2022-12-18T23:43:06.065Z,20.92
2022-12-18T23:45:40.245Z,20.78
2022-12-18T23:48:10.406Z,20.73
2022-12-18T23:50:40.501Z,20.67
2022-12-18T23:53:12.008Z,20.61
2022-12-18T23:55:44.651Z,20.67
2022-12-18T23:58:20.865Z,20.65
